createdAt,value
2019-04-22T00:00:37.233Z,5.3891
2019-04-22T00:01:43.593Z,5.3488
2019-04-22T00:02:53.897Z,5.2985
2019-04-22T00:04:02.654Z,5.2682
2019-04-22T00:05:14.291Z,5.2179
2019-04-22T00:06:38.178Z,5.1675
2019-04-22T00:07:45.069Z,5.1474
2019-04-22T00:08:55.561Z,5.1273
2019-04-22T00:11:14.516Z,5.1273
2019-04-22T00:12:22.190Z,5.1172
2019-04-22T00:13:26.172Z,5.0870
2019-04-22T00:14:28.279Z,5.0668
2019-04-22T00:15:35.666Z,5.0668
2019-04-22T00:16:56.645Z,5.0668
2019-04-22T00:18:03.335Z,5.0970
2019-04-22T00:19:24.345Z,5.0870
2019-04-22T00:21:26.323Z,5.1474
2019-04-22T00:22:27.737Z,5.1474
2019-04-22T00:23:39.348Z,5.1675
2019-04-22T00:24:46.072Z,5.1675
2019-04-22T00:25:55.847Z,5.1776
2019-04-22T00:27:03.896Z,5.1978
2019-04-22T00:28:08.703Z,5.2179
2019-04-22T00:29:37.108Z,5.2179
2019-04-22T00:30:22.536Z,5.2179
2019-04-22T00:31:38.476Z,5.2078
2019-04-22T00:32:36.993Z,5.1776
2019-04-22T00:33:45.525Z,5.1675
2019-04-22T00:34:56.010Z,5.1172
2019-04-22T00:36:04.697Z,5.0668
2019-04-22T00:37:17.286Z,5.0668
2019-04-22T00:38:26.572Z,5.0568
2019-04-22T00:39:37.349Z,5.0266
2019-04-22T00:40:39.707Z,5.0165
2019-04-22T00:41:44.056Z,4.9661
2019-04-22T00:42:53.058Z,4.9057
2019-04-22T00:44:02.883Z,4.8755
2019-04-22T00:45:11.705Z,4.8352
2019-04-22T00:46:19.594Z,4.7849
2019-04-22T00:47:30.629Z,4.7748
2019-04-22T00:48:35.975Z,4.7345
2019-04-22T00:50:58.362Z,4.6539
2019-04-22T00:52:05.168Z,4.6338
2019-04-22T00:53:11.655Z,4.6539
2019-04-22T00:54:17.021Z,4.6338
2019-04-22T00:56:27.881Z,4.6640
2019-04-22T00:57:56.315Z,4.6942
2019-04-22T00:59:08.218Z,4.7043
2019-04-22T00:59:55.385Z,4.7546
2019-04-22T01:01:01.631Z,4.7748
2019-04-22T01:02:13.400Z,4.7849
2019-04-22T01:03:21.445Z,4.7748
2019-04-22T01:04:29.125Z,4.7748
2019-04-22T01:05:34.226Z,4.8050
2019-04-22T01:06:40.618Z,4.7748
2019-04-22T01:07:49.461Z,4.8151
2019-04-22T01:09:05.385Z,4.8151
2019-04-22T01:10:06.532Z,4.8553
2019-04-22T01:11:17.154Z,4.8453
2019-04-22T01:12:24.488Z,4.8352
2019-04-22T01:14:34.264Z,4.8151
2019-04-22T01:15:54.080Z,4.8352
2019-04-22T01:16:57.742Z,4.8352
2019-04-22T01:18:08.239Z,4.8453
2019-04-22T01:19:06.527Z,4.8453
2019-04-22T01:20:45.784Z,4.8856
2019-04-22T01:21:32.072Z,4.9158
2019-04-22T01:22:34.186Z,4.9561
2019-04-22T01:23:41.066Z,4.9863
2019-04-22T01:24:51.567Z,4.9863
2019-04-22T01:25:55.356Z,4.9863
2019-04-22T01:27:03.225Z,4.9963
2019-04-22T01:28:10.855Z,5.0165
2019-04-22T01:29:14.678Z,5.0165
2019-04-22T01:30:23.272Z,5.0165
2019-04-22T01:31:25.025Z,5.0266
2019-04-22T01:32:34.999Z,5.0668
2019-04-22T01:33:44.158Z,5.0970
2019-04-22T01:34:56.541Z,5.1172
2019-04-22T01:36:15.574Z,5.1172
2019-04-22T01:37:21.664Z,5.0970
2019-04-22T01:38:23.346Z,5.0970
2019-04-22T01:39:44.092Z,5.1172
2019-04-22T01:40:52.610Z,5.0870
2019-04-22T01:43:07.285Z,5.0870
2019-04-22T01:45:22.795Z,5.0870
2019-04-22T01:46:31.558Z,5.0668
2019-04-22T01:47:36.407Z,5.0668
2019-04-22T01:48:50.033Z,5.0668
2019-04-22T01:49:55.617Z,5.0366
2019-04-22T01:50:56.182Z,5.0568
2019-04-22T01:52:14.304Z,5.0568
2019-04-22T01:53:21.572Z,5.0668
2019-04-22T01:55:36.940Z,5.0668
2019-04-22T01:56:44.927Z,5.0568
2019-04-22T01:57:50.107Z,5.0668
2019-04-22T01:58:54.624Z,5.0668
2019-04-22T02:00:00.786Z,5.0668
2019-04-22T02:01:27.509Z,5.0668
2019-04-22T02:02:23.576Z,5.0668
2019-04-22T02:03:33.387Z,5.0870
2019-04-22T02:05:46.893Z,5.0870
2019-04-22T02:06:57.810Z,5.1172
2019-04-22T02:08:04.443Z,5.0970
2019-04-22T02:09:20.406Z,5.0970
2019-04-22T02:10:30.833Z,5.1172
2019-04-22T02:11:33.911Z,5.0870
2019-04-22T02:12:39.835Z,5.0970
2019-04-22T02:13:54.400Z,5.0970
2019-04-22T02:14:50.434Z,5.0668
2019-04-22T02:15:54.829Z,5.0668
2019-04-22T02:17:10.796Z,5.0366
2019-04-22T02:18:23.388Z,5.0668
2019-04-22T02:19:33.437Z,5.0668
2019-04-22T02:20:41.054Z,5.0568
2019-04-22T02:21:42.739Z,5.0568
2019-04-22T02:23:00.911Z,5.0366
2019-04-22T02:23:56.555Z,5.0366
2019-04-22T02:25:13.492Z,5.0366
2019-04-22T02:26:17.537Z,5.0366
2019-04-22T02:27:28.761Z,5.0266
2019-04-22T02:28:36.715Z,5.0266
2019-04-22T02:29:45.459Z,5.0165
2019-04-22T02:30:54.308Z,5.0266
2019-04-22T02:33:30.761Z,4.9863
2019-04-22T02:34:21.680Z,4.9359
2019-04-22T02:35:41.205Z,4.9057
2019-04-22T02:38:04.739Z,4.8553
2019-04-22T02:39:00.041Z,4.8755
2019-04-22T02:39:56.757Z,4.8553
2019-04-22T02:42:10.582Z,4.8755
2019-04-22T02:44:30.354Z,4.8755
2019-04-22T02:45:52.227Z,4.8755
2019-04-22T02:46:53.236Z,4.8755
2019-04-22T02:47:54.040Z,4.8553
2019-04-22T02:50:05.146Z,4.8553
2019-04-22T02:52:26.272Z,4.8453
2019-04-22T02:54:02.595Z,4.8553
2019-04-22T02:55:53.558Z,4.8151
2019-04-22T02:56:53.030Z,4.8050
2019-04-22T02:58:05.647Z,4.8050
2019-04-22T03:00:29.526Z,4.7849
2019-04-22T03:01:31.313Z,4.7849
2019-04-22T03:02:56.327Z,4.7345
2019-04-22T03:04:51.195Z,4.6942
2019-04-22T03:07:03.718Z,4.6942
2019-04-22T03:09:25.469Z,4.6942
2019-04-22T03:12:02.861Z,4.6741
2019-04-22T03:12:43.500Z,4.6640
2019-04-22T03:15:00.042Z,4.6539
2019-04-22T03:16:17.130Z,4.6338
2019-04-22T03:17:20.647Z,4.6539
2019-04-22T03:18:38.316Z,4.6237
2019-04-22T03:20:55.550Z,4.5935
2019-04-22T03:21:57.753Z,4.5532
2019-04-22T03:23:05.801Z,4.5532
2019-04-22T03:26:32.015Z,4.5834
2019-04-22T03:27:31.832Z,4.5532
2019-04-22T03:28:47.809Z,4.5834
2019-04-22T03:29:58.695Z,4.5935
2019-04-22T03:32:33.108Z,4.5935
2019-04-22T03:40:17.497Z,4.5532
2019-04-22T03:41:24.456Z,4.5532
2019-04-22T03:42:17.598Z,4.5532
2019-04-22T03:43:38.073Z,4.5532
2019-04-22T03:45:58.703Z,4.5432
2019-04-22T03:47:09.476Z,4.5432
2019-04-22T03:48:01.514Z,4.5432
2019-04-22T03:49:24.042Z,4.5834
2019-04-22T03:50:20.695Z,4.5834
2019-04-22T03:52:27.143Z,4.6036
2019-04-22T03:53:38.236Z,4.6036
2019-04-22T03:55:05.441Z,4.6237
2019-04-22T03:55:53.174Z,4.6338
2019-04-22T03:58:21.444Z,4.6741
2019-04-22T04:00:36.001Z,4.7043
2019-04-22T04:02:47.392Z,4.7244
2019-04-22T04:04:00.689Z,4.7244
2019-04-22T04:04:58.743Z,4.7244
2019-04-22T04:05:59.605Z,4.7244
2019-04-22T04:07:34.264Z,4.7043
2019-04-22T04:08:26.844Z,4.6942
2019-04-22T04:09:32.749Z,4.6942
2019-04-22T04:10:40.047Z,4.6942
2019-04-22T04:13:01.933Z,4.6640
2019-04-22T04:14:11.956Z,4.6539
2019-04-22T04:16:21.769Z,4.6237
2019-04-22T04:18:46.875Z,4.6237
2019-04-22T04:20:03.498Z,4.6237
2019-04-22T04:21:09.152Z,4.6036
2019-04-22T04:23:30.800Z,4.5532
2019-04-22T04:24:32.735Z,4.5532
2019-04-22T04:25:32.178Z,4.5432
2019-04-22T04:26:51.836Z,4.5230
2019-04-22T04:29:05.458Z,4.5129
2019-04-22T04:30:05.674Z,4.5029
2019-04-22T04:31:15.182Z,4.5129
2019-04-22T04:32:27.388Z,4.5230
2019-04-22T04:34:56.276Z,4.5129
2019-04-22T04:36:54.701Z,4.5230
2019-04-22T04:39:06.712Z,4.5129
2019-04-22T04:46:02.855Z,4.5935
2019-04-22T04:47:11.829Z,4.6036
2019-04-22T04:49:24.109Z,4.6539
2019-04-22T04:51:47.031Z,4.7043
2019-04-22T04:53:02.315Z,4.7244
2019-04-22T04:54:01.694Z,4.7748
2019-04-22T04:56:10.842Z,4.8553
2019-04-22T04:57:41.002Z,4.9158
2019-04-22T05:00:48.896Z,5.0970
2019-04-22T05:03:00.552Z,5.2380
2019-04-22T05:04:11.379Z,5.3085
2019-04-22T05:05:12.262Z,5.3891
2019-04-22T05:06:24.294Z,5.4495
2019-04-22T05:07:38.251Z,5.4898
2019-04-22T05:08:52.820Z,5.5704
2019-04-22T05:09:47.343Z,5.6308
2019-04-22T05:13:01.630Z,5.8322
2019-04-22T05:14:24.058Z,5.8926
2019-04-22T05:15:33.008Z,5.9631
2019-04-22T05:16:32.501Z,6.0336
2019-04-22T05:17:45.504Z,6.1142
2019-04-22T05:18:49.031Z,6.1746
2019-04-22T05:19:49.565Z,6.2451
2019-04-22T05:21:09.349Z,6.3055
2019-04-22T05:22:05.797Z,6.3660
2019-04-22T05:23:20.743Z,6.4365
2019-04-22T05:24:26.212Z,6.4868
2019-04-22T05:25:26.948Z,6.5472
2019-04-22T05:26:39.697Z,6.5875
2019-04-22T05:27:48.768Z,6.6681
2019-04-22T05:28:52.180Z,6.6983
2019-04-22T05:30:21.554Z,6.7587
2019-04-22T05:31:08.364Z,6.7990
2019-04-22T05:32:17.597Z,6.8393
2019-04-22T05:33:21.658Z,6.8896
2019-04-22T05:34:31.842Z,6.9400
2019-04-22T05:35:41.232Z,6.9803
2019-04-22T05:36:48.446Z,7.0508
2019-04-22T05:37:58.091Z,7.1011
2019-04-22T05:39:09.148Z,7.1515
2019-04-22T05:40:22.965Z,7.2018
2019-04-22T05:41:16.325Z,7.2723
2019-04-22T05:42:23.747Z,7.3227
2019-04-22T05:43:34.371Z,7.3932
2019-04-22T05:45:50.954Z,7.5241
2019-04-22T05:46:52.771Z,7.6047
2019-04-22T05:48:02.840Z,7.6752
2019-04-22T05:50:47.237Z,7.8967
2019-04-22T05:51:33.869Z,8.0075
2019-04-22T05:52:40.492Z,8.1586
2019-04-22T05:53:48.173Z,8.3298
2019-04-22T05:54:55.301Z,8.4808
2019-04-22T05:56:07.002Z,8.6621
2019-04-22T05:57:14.347Z,8.8132
2019-04-22T05:58:24.405Z,8.9944
2019-04-22T05:59:32.618Z,9.2059
2019-04-22T06:01:55.088Z,9.6893
2019-04-22T06:05:10.051Z,10.4547
2019-04-22T06:07:24.780Z,10.7266
2019-04-22T06:08:33.658Z,10.8072
2019-04-22T06:09:32.294Z,10.9180
2019-04-22T06:11:53.200Z,11.0590
2019-04-22T06:13:02.126Z,11.0590
2019-04-22T06:14:07.548Z,11.0287
2019-04-22T06:15:19.498Z,10.9683
2019-04-22T06:16:34.582Z,10.9180
2019-04-22T06:17:38.944Z,10.9683
2019-04-22T06:18:38.587Z,11.0992
2019-04-22T06:19:50.873Z,11.3208
2019-04-22T06:21:06.610Z,11.5424
2019-04-22T06:22:17.231Z,11.7538
2019-04-22T06:23:18.678Z,11.9351
2019-04-22T06:25:49.279Z,12.2070
2019-04-22T06:27:53.921Z,12.1265
2019-04-22T06:30:07.655Z,11.9452
2019-04-22T06:31:23.010Z,11.8848
2019-04-22T06:32:26.672Z,11.9351
2019-04-22T06:33:34.791Z,11.9855
2019-04-22T06:34:35.940Z,12.0660
2019-04-22T06:35:54.623Z,12.1164
2019-04-22T06:37:01.883Z,12.1164
2019-04-22T06:39:14.348Z,12.1869
2019-04-22T06:40:24.674Z,12.2272
2019-04-22T06:41:27.371Z,12.2675
2019-04-22T06:42:39.387Z,12.3178
2019-04-22T06:43:40.770Z,12.4084
2019-04-22T06:44:56.416Z,12.4890
2019-04-22T06:46:00.745Z,12.5897
2019-04-22T06:47:06.167Z,12.7408
2019-04-22T06:48:19.456Z,12.9321
2019-04-22T06:50:40.498Z,13.3047
2019-04-22T06:51:40.228Z,13.4760
2019-04-22T06:52:52.298Z,13.6270
2019-04-22T06:53:59.148Z,13.7680
2019-04-22T06:55:11.725Z,13.8889
2019-04-22T06:56:14.225Z,14.0198
2019-04-22T06:57:22.090Z,14.2010
2019-04-22T06:58:33.394Z,14.4327
2019-04-22T06:59:32.700Z,14.7046
2019-04-22T07:00:42.935Z,15.0067
2019-04-22T07:01:50.361Z,15.2887
2019-04-22T07:03:23.750Z,15.5304
2019-04-22T07:04:03.178Z,15.7520
2019-04-22T07:05:17.961Z,15.8728
2019-04-22T07:06:26.139Z,15.9433
2019-04-22T07:07:31.189Z,15.9735
2019-04-22T07:09:48.754Z,15.8627
2019-04-22T07:10:50.715Z,15.7217
2019-04-22T07:12:09.787Z,15.6210
2019-04-22T07:13:21.217Z,15.5002
2019-04-22T07:14:19.112Z,15.3894
2019-04-22T07:15:45.584Z,15.2786
2019-04-22T07:16:37.856Z,15.1376
2019-04-22T07:17:49.235Z,15.0168
2019-04-22T07:18:48.469Z,14.9362
2019-04-22T07:20:02.123Z,14.9060
2019-04-22T07:21:06.618Z,15.0168
2019-04-22T07:22:16.269Z,15.3088
2019-04-22T07:23:38.635Z,15.6412
2019-04-22T07:24:40.350Z,16.0138
2019-04-22T07:25:40.772Z,16.3361
2019-04-22T07:26:45.133Z,16.7590
2019-04-22T07:28:13.884Z,17.1820
2019-04-22T07:29:06.236Z,17.5949
2019-04-22T07:30:20.683Z,17.9977
2019-04-22T07:31:18.995Z,18.3603
2019-04-22T07:32:53.755Z,18.6523
2019-04-22T07:33:37.673Z,18.9041
2019-04-22T07:34:47.350Z,19.1559
2019-04-22T07:36:12.345Z,19.3674
2019-04-22T07:37:13.084Z,19.5386
2019-04-22T07:38:11.140Z,19.5889
2019-04-22T07:39:17.074Z,19.4781
2019-04-22T07:40:32.473Z,19.2163
2019-04-22T07:41:38.279Z,18.8739
2019-04-22T07:42:45.523Z,18.5416
2019-04-22T07:44:07.633Z,18.2495
2019-04-22T07:44:54.841Z,17.9977
2019-04-22T07:46:10.862Z,17.8870
2019-04-22T07:47:20.588Z,17.8668
2019-04-22T07:49:39.444Z,18.3704
2019-04-22T07:50:49.331Z,18.9243
2019-04-22T07:51:44.589Z,19.6091
2019-04-22T07:52:52.078Z,20.3241
2019-04-22T07:54:01.815Z,21.0391
2019-04-22T07:55:05.589Z,21.6937
2019-04-22T07:56:18.775Z,22.2778
2019-04-22T07:57:37.477Z,22.8519
2019-04-22T07:58:37.639Z,23.3252
2019-04-22T07:59:40.371Z,23.7180
2019-04-22T08:01:12.274Z,24.0604
2019-04-22T08:01:56.490Z,24.3927
2019-04-22T08:03:14.791Z,24.7552
2019-04-22T08:04:30.266Z,25.0977
2019-04-22T08:05:26.365Z,25.4300
2019-04-22T08:06:29.306Z,25.7724
2019-04-22T08:08:45.137Z,26.3968
2019-04-22T08:10:00.077Z,26.6586
2019-04-22T08:11:08.942Z,26.9205
2019-04-22T08:12:12.960Z,27.2528
2019-04-22T08:13:26.288Z,27.6154
2019-04-22T08:14:36.203Z,27.9276
2019-04-22T08:15:41.780Z,28.1793
2019-04-22T08:16:53.067Z,28.3707
2019-04-22T08:19:14.158Z,28.7836
2019-04-22T08:20:18.765Z,28.9951
2019-04-22T08:21:20.005Z,29.2065
2019-04-22T08:22:25.959Z,29.4180
2019-04-22T08:23:39.964Z,29.6396
2019-04-22T08:24:47.309Z,29.8309
2019-04-22T08:25:49.181Z,30.0021
2019-04-22T08:26:57.940Z,30.1532
2019-04-22T08:28:10.427Z,30.2942
2019-04-22T08:29:20.215Z,30.3848
2019-04-22T08:31:35.955Z,30.5963
2019-04-22T08:32:53.359Z,30.7474
2019-04-22T08:33:55.270Z,30.9488
2019-04-22T08:35:05.193Z,31.1905
2019-04-22T08:37:41.936Z,31.3818
2019-04-22T08:38:33.748Z,31.5128
2019-04-22T08:39:33.178Z,31.6135
2019-04-22T08:40:50.165Z,31.7343
2019-04-22T08:41:49.413Z,31.9861
2019-04-22T08:43:07.227Z,32.1774
2019-04-22T08:44:49.690Z,32.3688
2019-04-22T08:45:18.262Z,32.5198
2019-04-22T08:48:37.043Z,32.8522
2019-04-22T08:49:56.360Z,33.0032
2019-04-22T08:50:50.802Z,33.1140
2019-04-22T08:53:28.715Z,33.1845
2019-04-22T08:54:17.988Z,33.0737
2019-04-22T08:55:32.864Z,32.8925
2019-04-22T08:58:07.217Z,32.6508
2019-04-22T08:58:59.946Z,32.4393
2019-04-22T09:00:02.393Z,32.3486
2019-04-22T09:01:11.938Z,32.2278
2019-04-22T09:02:19.572Z,31.8350
2019-04-22T09:03:25.948Z,31.0193
2019-04-22T09:04:31.235Z,30.2237
2019-04-22T09:06:01.966Z,29.4885
2019-04-22T09:07:09.170Z,28.7433
2019-04-22T09:08:02.089Z,28.1088
2019-04-22T09:09:06.173Z,27.5952
2019-04-22T09:10:15.839Z,27.1722
2019-04-22T09:11:26.716Z,26.9406
2019-04-22T09:12:49.979Z,26.8198
2019-04-22T09:13:45.308Z,26.7191
2019-04-22T09:14:45.299Z,26.4975
2019-04-22T09:15:55.541Z,26.1752
2019-04-22T09:17:03.820Z,25.8328
2019-04-22T09:18:19.707Z,25.5106
2019-04-22T09:19:17.819Z,25.1682
2019-04-22T09:20:27.647Z,24.8660
2019-04-22T09:21:43.281Z,24.5337
2019-04-22T09:22:45.403Z,24.2416
2019-04-22T09:24:56.017Z,23.7985
2019-04-22T09:26:09.149Z,23.6475
2019-04-22T09:28:22.817Z,23.3856
2019-04-22T09:29:35.696Z,23.2748
2019-04-22T09:30:43.231Z,23.1741
2019-04-22T09:31:53.594Z,23.1741
2019-04-22T09:33:06.399Z,23.2346
2019-04-22T09:33:59.713Z,23.4259
2019-04-22T09:35:10.158Z,23.7985
2019-04-22T09:36:33.826Z,24.3726
2019-04-22T09:38:38.152Z,25.6113
2019-04-22T09:39:56.085Z,26.0141
2019-04-22T09:40:52.558Z,26.3162
2019-04-22T09:42:00.512Z,26.6284
2019-04-22T09:43:10.027Z,26.7291
2019-04-22T09:44:19.052Z,26.5982
2019-04-22T09:45:21.715Z,26.4673
2019-04-22T09:46:34.644Z,26.3968
2019-04-22T09:48:50.225Z,27.1219
2019-04-22T09:51:05.643Z,27.8369
2019-04-22T09:52:28.016Z,27.8470
2019-04-22T09:53:22.411Z,27.7866
2019-04-22T09:54:45.205Z,27.5851
2019-04-22T09:55:37.089Z,27.2931
2019-04-22T09:56:49.360Z,26.9708
2019-04-22T09:57:53.927Z,26.5781
2019-04-22T09:59:03.961Z,26.2457
2019-04-22T10:00:13.922Z,25.9033
2019-04-22T10:02:38.953Z,25.3494
2019-04-22T10:03:36.770Z,25.1984
2019-04-22T10:04:46.658Z,25.1480
2019-04-22T10:06:02.484Z,25.0574
2019-04-22T10:06:59.701Z,24.9567
2019-04-22T10:08:18.538Z,24.9265
2019-04-22T10:09:33.079Z,25.0272
2019-04-22T10:10:22.164Z,25.3192
2019-04-22T10:11:50.943Z,25.9436
2019-04-22T10:12:43.171Z,26.6989
2019-04-22T10:13:53.825Z,27.4442
2019-04-22T10:14:55.946Z,28.0182
2019-04-22T10:16:12.154Z,28.4009
2019-04-22T10:17:14.177Z,28.6829
2019-04-22T10:18:25.829Z,28.9648
2019-04-22T10:19:29.985Z,29.2770
2019-04-22T10:20:38.163Z,29.5087
2019-04-22T10:21:49.935Z,29.7906
2019-04-22T10:23:03.793Z,30.2438
2019-04-22T10:24:03.537Z,30.7675
2019-04-22T10:25:10.760Z,31.2308
2019-04-22T10:26:22.100Z,31.6235
2019-04-22T10:27:25.954Z,32.0667
2019-04-22T10:28:42.294Z,32.4796
2019-04-22T10:29:48.472Z,32.8119
2019-04-22T10:30:52.151Z,33.1241
2019-04-22T10:32:05.567Z,33.3859
2019-04-22T10:33:09.058Z,33.5873
2019-04-22T10:34:07.081Z,33.6780
2019-04-22T10:35:03.087Z,33.8693
2019-04-22T10:36:07.752Z,34.0305
2019-04-22T10:37:15.284Z,34.1010
2019-04-22T10:38:19.194Z,34.1211
2019-04-22T10:39:35.357Z,33.9499
2019-04-22T10:40:30.224Z,33.7283
2019-04-22T10:41:34.796Z,33.7787
2019-04-22T10:42:37.193Z,33.9700
2019-04-22T10:43:41.221Z,34.0607
2019-04-22T10:44:45.222Z,34.1010
2019-04-22T10:45:50.251Z,34.0002
2019-04-22T10:46:53.877Z,33.8391
2019-04-22T10:47:58.342Z,33.7183
2019-04-22T10:49:01.970Z,33.5370
2019-04-22T10:50:06.651Z,33.4464
2019-04-22T10:51:10.664Z,33.4866
2019-04-22T10:52:13.173Z,33.5672
2019-04-22T10:53:17.697Z,33.7082
2019-04-22T10:54:20.813Z,33.8190
2019-04-22T10:55:23.476Z,33.8995
2019-04-22T10:56:27.202Z,33.9499
2019-04-22T10:57:30.170Z,33.9700
2019-04-22T10:58:33.193Z,33.9700
2019-04-22T10:59:36.521Z,33.9398
2019-04-22T11:00:39.794Z,33.8593
2019-04-22T11:01:44.359Z,33.6578
2019-04-22T11:02:47.947Z,33.4464
2019-04-22T11:03:51.202Z,33.2349
2019-04-22T11:04:54.500Z,33.0334
2019-04-22T11:05:57.224Z,32.8723
2019-04-22T11:07:03.916Z,32.8824
2019-04-22T11:08:10.367Z,32.9932
2019-04-22T11:09:16.351Z,33.0435
2019-04-22T11:10:35.304Z,33.0133
2019-04-22T11:11:39.771Z,32.9327
2019-04-22T11:12:37.994Z,32.7515
2019-04-22T11:13:42.189Z,32.4796
2019-04-22T11:14:45.552Z,32.3184
2019-04-22T11:15:48.815Z,32.2076
2019-04-22T11:16:51.305Z,32.2479
2019-04-22T11:17:55.516Z,32.3788
2019-04-22T11:18:59.335Z,32.4796
2019-04-22T11:20:03.786Z,32.6004
2019-04-22T11:21:07.457Z,32.7213
2019-04-22T11:22:18.793Z,32.7515
2019-04-22T11:23:18.667Z,32.5098
2019-04-22T11:24:21.193Z,32.2076
2019-04-22T11:25:25.517Z,31.8451
2019-04-22T11:26:29.980Z,31.4423
2019-04-22T11:27:34.985Z,30.9891
2019-04-22T11:28:38.329Z,30.5359
2019-04-22T11:29:41.758Z,30.0726
2019-04-22T11:30:45.271Z,29.7101
2019-04-22T11:31:48.780Z,29.5691
2019-04-22T11:32:50.645Z,29.4583
2019-04-22T11:33:54.426Z,29.3073
2019-04-22T11:34:58.066Z,29.1864
2019-04-22T11:36:02.054Z,29.2267
2019-04-22T11:37:05.351Z,29.2368
2019-04-22T11:38:08.888Z,29.2065
2019-04-22T11:39:13.136Z,29.1159
2019-04-22T11:40:25.458Z,29.0555
2019-04-22T11:41:25.559Z,29.0353
2019-04-22T11:42:28.212Z,29.0756
2019-04-22T11:43:32.358Z,29.1763
2019-04-22T11:44:35.332Z,29.3878
2019-04-22T11:45:39.643Z,29.5087
2019-04-22T11:46:43.256Z,29.5490
2019-04-22T11:47:47.605Z,29.5087
2019-04-22T11:48:50.195Z,29.4180
2019-04-22T11:49:54.480Z,29.4281
2019-04-22T11:50:57.879Z,29.5288
2019-04-22T11:52:01.814Z,29.6799
2019-04-22T11:53:04.756Z,29.8611
2019-04-22T11:54:07.791Z,30.1331
2019-04-22T11:55:10.908Z,30.4150
2019-04-22T11:56:14.188Z,30.5762
2019-04-22T11:57:17.203Z,30.6165
2019-04-22T11:58:21.216Z,30.6970
2019-04-22T11:59:24.913Z,30.7474
2019-04-22T12:00:28.202Z,30.8884
2019-04-22T12:01:31.185Z,31.1905
2019-04-22T12:02:34.182Z,31.3818
2019-04-22T12:03:37.872Z,31.5631
2019-04-22T12:04:41.158Z,31.7041
2019-04-22T12:05:44.189Z,31.8451
2019-04-22T12:06:47.777Z,31.9861
2019-04-22T12:07:50.968Z,32.0667
2019-04-22T12:08:54.295Z,32.1774
2019-04-22T12:09:57.739Z,32.2177
2019-04-22T12:11:03.603Z,32.1271
2019-04-22T12:12:09.637Z,32.0062
2019-04-22T12:13:12.353Z,31.9458
2019-04-22T12:14:15.977Z,31.9156
2019-04-22T12:15:19.196Z,31.8149
2019-04-22T12:16:23.303Z,31.7242
2019-04-22T12:17:26.759Z,31.7645
2019-04-22T12:18:29.231Z,31.8753
2019-04-22T12:19:33.692Z,32.0062
2019-04-22T12:20:39.191Z,32.1069
2019-04-22T12:21:42.305Z,32.0969
2019-04-22T12:22:47.233Z,31.9962
2019-04-22T12:23:51.215Z,31.8854
2019-04-22T12:24:54.411Z,31.7645
2019-04-22T12:26:02.055Z,31.5833
2019-04-22T12:27:06.355Z,31.4725
2019-04-22T12:28:09.187Z,31.4624
2019-04-22T12:29:13.224Z,31.4322
2019-04-22T12:30:17.195Z,31.4322
2019-04-22T12:31:21.690Z,31.5128
2019-04-22T12:32:25.371Z,31.6336
2019-04-22T12:33:29.474Z,31.7545
2019-04-22T12:34:33.346Z,31.8552
2019-04-22T12:35:36.964Z,31.9156
2019-04-22T12:36:42.617Z,31.9559
2019-04-22T12:37:52.833Z,31.9559
2019-04-22T12:38:53.730Z,31.9055
2019-04-22T12:39:56.584Z,31.8753
2019-04-22T12:41:04.344Z,31.8753
2019-04-22T12:42:09.010Z,31.9257
2019-04-22T12:43:12.832Z,31.8552
2019-04-22T12:44:18.047Z,31.7343
2019-04-22T12:45:22.410Z,31.6940
2019-04-22T12:46:26.051Z,31.5430
2019-04-22T12:47:30.506Z,31.2912
2019-04-22T12:48:33.173Z,31.0898
2019-04-22T12:49:39.244Z,30.9689
2019-04-22T12:50:46.481Z,30.8783
2019-04-22T12:51:51.416Z,30.7574
2019-04-22T12:52:59.375Z,30.7272
2019-04-22T12:54:03.349Z,30.7574
2019-04-22T12:55:07.899Z,30.7977
2019-04-22T12:56:12.621Z,30.7474
2019-04-22T12:57:16.720Z,30.7172
2019-04-22T12:58:20.048Z,30.6366
2019-04-22T12:59:23.687Z,30.5661
2019-04-22T13:00:26.640Z,30.4251
2019-04-22T13:01:30.860Z,30.2438
2019-04-22T13:02:34.515Z,30.1028
2019-04-22T13:03:38.270Z,30.0021
2019-04-22T13:04:42.208Z,29.9216
2019-04-22T13:05:45.213Z,29.8511
2019-04-22T13:06:49.884Z,29.7906
2019-04-22T13:07:53.723Z,29.6698
2019-04-22T13:08:56.606Z,29.5087
2019-04-22T13:10:01.268Z,29.3878
2019-04-22T13:11:22.980Z,29.1763
2019-04-22T13:12:27.199Z,28.8138
2019-04-22T13:13:31.225Z,28.5620
2019-04-22T13:14:34.988Z,28.2498
2019-04-22T13:15:39.191Z,27.9980
2019-04-22T13:16:42.905Z,27.8067
2019-04-22T13:17:46.324Z,27.5952
2019-04-22T13:18:55.667Z,27.4039
2019-04-22T13:19:58.400Z,27.1219
2019-04-22T13:21:02.317Z,26.8701
2019-04-22T13:22:05.198Z,26.6486
2019-04-22T13:23:09.432Z,26.4673
2019-04-22T13:24:13.314Z,26.3263
2019-04-22T13:25:17.340Z,26.2054
2019-04-22T13:26:21.111Z,26.1349
2019-04-22T13:27:24.877Z,26.0544
2019-04-22T13:28:29.294Z,25.9940
2019-04-22T13:29:33.034Z,25.9839
2019-04-22T13:30:36.849Z,26.0242
2019-04-22T13:31:40.553Z,26.0645
2019-04-22T13:32:43.188Z,26.1249
2019-04-22T13:33:46.701Z,26.1752
2019-04-22T13:34:55.081Z,26.1954
2019-04-22T13:35:59.331Z,26.2759
2019-04-22T13:37:03.182Z,26.2961
2019-04-22T13:38:06.902Z,26.3565
2019-04-22T13:39:11.297Z,26.3867
2019-04-22T13:40:15.060Z,26.4471
2019-04-22T13:41:29.193Z,26.4673
2019-04-22T13:42:27.563Z,26.4471
2019-04-22T13:43:32.929Z,26.3968
2019-04-22T13:44:37.620Z,26.3263
2019-04-22T13:45:40.804Z,26.2256
2019-04-22T13:47:02.152Z,26.1752
2019-04-22T13:48:14.702Z,26.1349
2019-04-22T13:49:25.561Z,26.0947
2019-04-22T13:50:47.491Z,26.0544
2019-04-22T13:51:49.128Z,25.9839
2019-04-22T13:52:58.504Z,25.9235
2019-04-22T13:54:29.652Z,25.9235
2019-04-22T13:55:05.640Z,25.9134
2019-04-22T13:56:07.418Z,25.8731
2019-04-22T13:57:18.373Z,25.8328
2019-04-22T13:58:15.722Z,25.8026
2019-04-22T13:59:26.099Z,25.7523
2019-04-22T14:00:20.388Z,25.6918
2019-04-22T14:01:23.182Z,25.6516
2019-04-22T14:02:26.668Z,25.6113
2019-04-22T14:03:30.765Z,25.6012
2019-04-22T14:04:34.828Z,25.5508
2019-04-22T14:05:37.272Z,25.5206
2019-04-22T14:06:40.773Z,25.5106
2019-04-22T14:07:43.787Z,25.4300
2019-04-22T14:08:47.173Z,25.3796
2019-04-22T14:09:50.738Z,25.2991
2019-04-22T14:10:54.433Z,25.2386
2019-04-22T14:12:01.935Z,25.1682
2019-04-22T14:13:05.804Z,25.0876
2019-04-22T14:14:09.192Z,24.9969
2019-04-22T14:15:12.199Z,24.8962
2019-04-22T14:16:15.438Z,24.7955
2019-04-22T14:17:18.767Z,24.7250
2019-04-22T14:18:21.204Z,24.6848
2019-04-22T14:19:25.889Z,24.6445
2019-04-22T14:20:31.283Z,24.5840
2019-04-22T14:21:36.682Z,24.5035
2019-04-22T14:22:39.183Z,24.4028
2019-04-22T14:23:42.487Z,24.3423
2019-04-22T14:24:45.169Z,24.3222
2019-04-22T14:25:48.512Z,24.3423
2019-04-22T14:27:07.233Z,24.3021
2019-04-22T14:28:05.446Z,24.2719
2019-04-22T14:29:08.107Z,24.2215
2019-04-22T14:30:12.273Z,24.1611
2019-04-22T14:31:15.190Z,24.1006
2019-04-22T14:32:21.887Z,24.0302
2019-04-22T14:33:26.014Z,23.9496
2019-04-22T14:34:30.233Z,23.8791
2019-04-22T14:35:35.335Z,23.8287
2019-04-22T14:36:39.320Z,23.7582
2019-04-22T14:37:42.575Z,23.6978
2019-04-22T14:38:45.957Z,23.6575
2019-04-22T14:39:49.190Z,23.6575
2019-04-22T14:40:52.193Z,23.6475
2019-04-22T14:42:14.014Z,23.6575
2019-04-22T14:43:24.739Z,23.6475
2019-04-22T14:46:01.539Z,23.4763
2019-04-22T14:47:09.188Z,23.3554
2019-04-22T14:48:07.236Z,23.2245
2019-04-22T14:49:11.851Z,23.1036
2019-04-22T14:50:17.693Z,22.9526
2019-04-22T14:51:23.592Z,22.7914
2019-04-22T14:52:38.115Z,22.6202
2019-04-22T14:53:41.168Z,22.4893
2019-04-22T14:54:44.649Z,22.3685
2019-04-22T14:55:38.446Z,22.2778
2019-04-22T14:56:42.308Z,22.1973
2019-04-22T14:57:46.832Z,22.1167
2019-04-22T14:58:50.900Z,22.0663
2019-04-22T14:59:55.550Z,22.0261
2019-04-22T15:00:59.127Z,21.9757
2019-04-22T15:02:03.429Z,21.9354
2019-04-22T15:03:08.174Z,21.8750
2019-04-22T15:04:11.186Z,21.8347
2019-04-22T15:05:14.359Z,21.7743
2019-04-22T15:06:18.148Z,21.7139
2019-04-22T15:07:21.197Z,21.6736
2019-04-22T15:08:24.804Z,21.6434
2019-04-22T15:09:28.113Z,21.6132
2019-04-22T15:10:31.881Z,21.5829
2019-04-22T15:11:48.311Z,21.5628
2019-04-22T15:12:46.487Z,21.5829
2019-04-22T15:13:51.620Z,21.5427
2019-04-22T15:14:55.482Z,21.4621
2019-04-22T15:15:59.477Z,21.3815